createdAt,value
2022-12-11T00:01:42.776Z,6.68
2022-12-11T00:04:10.281Z,7.15
2022-12-11T00:06:37.703Z,7.22
2022-12-11T00:09:04.932Z,5.38
2022-12-11T00:11:32.358Z,5.88
2022-12-11T00:13:59.644Z,6.30
2022-12-11T00:16:27.386Z,4.80
2022-12-11T00:18:55.658Z,6.10
2022-12-11T00:21:23.017Z,5.97
2022-12-11T00:23:50.478Z,5.80
2022-12-11T00:26:19.524Z,5.70
2022-12-11T00:28:47.079Z,6.43
2022-12-11T00:31:17.675Z,6.07
2022-12-11T00:33:46.660Z,6.90
2022-12-11T00:36:18.624Z,6.32
2022-12-11T00:38:47.965Z,6.40
2022-12-11T00:41:16.180Z,5.57
2022-12-11T00:43:43.947Z,4.82
2022-12-11T00:46:12.914Z,6.30
2022-12-11T00:48:40.681Z,4.93
2022-12-11T00:51:08.910Z,5.40
2022-12-11T00:53:39.010Z,5.30
2022-12-11T00:56:32.659Z,5.28
2022-12-11T00:59:00.320Z,4.80
2022-12-11T01:01:27.782Z,4.60
2022-12-11T01:03:55.229Z,4.63
2022-12-11T01:06:24.977Z,4.82
2022-12-11T01:09:12.562Z,6.88
2022-12-11T01:11:43.171Z,5.68
2022-12-11T01:14:11.943Z,7.03
2022-12-11T01:16:39.838Z,6.60
2022-12-11T01:19:07.837Z,5.88
2022-12-11T01:21:38.607Z,6.18
2022-12-11T01:24:09.662Z,5.55
2022-12-11T01:26:38.750Z,7.15
2022-12-11T01:29:06.169Z,7.40
2022-12-11T01:31:34.234Z,5.88
2022-12-11T01:34:01.767Z,6.28
2022-12-11T01:36:29.291Z,6.47
2022-12-11T01:38:56.942Z,5.55
2022-12-11T01:41:24.391Z,6.63
2022-12-11T01:44:28.565Z,5.82
2022-12-11T01:47:01.493Z,5.28
2022-12-11T01:52:12.632Z,5.32
2022-12-11T01:54:40.378Z,5.10
2022-12-11T01:57:12.136Z,5.95
2022-12-11T01:59:44.953Z,6.45
2022-12-11T02:05:12.377Z,4.55
2022-12-11T02:07:48.005Z,6.35
2022-12-11T02:10:16.803Z,5.50
2022-12-11T02:13:09.083Z,4.28
2022-12-11T02:15:40.565Z,5.75
2022-12-11T02:18:18.238Z,6.55
2022-12-11T02:21:00.644Z,4.18
2022-12-11T02:24:06.004Z,4.88
2022-12-11T02:26:51.255Z,5.07
2022-12-11T02:29:26.551Z,4.30
2022-12-11T02:32:14.094Z,4.18
2022-12-11T02:34:47.278Z,3.40
2022-12-11T02:37:22.382Z,3.60
2022-12-11T02:39:53.139Z,4.43
2022-12-11T02:42:21.592Z,4.78
2022-12-11T02:44:51.240Z,3.80
2022-12-11T02:47:23.066Z,3.35
2022-12-11T02:49:51.971Z,3.50
2022-12-11T02:52:26.229Z,3.47
2022-12-11T02:54:57.414Z,3.75
2022-12-11T02:57:33.552Z,3.22
2022-12-11T03:00:01.057Z,2.70
2022-12-11T03:02:28.565Z,3.92
2022-12-11T03:04:57.451Z,3.55
2022-12-11T03:07:35.016Z,2.88
2022-12-11T03:10:03.696Z,2.95
2022-12-11T03:12:36.697Z,3.47
2022-12-11T03:15:11.540Z,2.95
2022-12-11T03:17:42.970Z,2.95
2022-12-11T03:20:31.652Z,2.88
2022-12-11T03:23:14.237Z,3.45
2022-12-11T03:26:03.569Z,2.60
2022-12-11T03:28:34.258Z,2.13
2022-12-11T03:31:08.026Z,2.28
2022-12-11T03:33:41.897Z,2.53
2022-12-11T03:36:14.300Z,3.25
2022-12-11T03:38:51.148Z,2.55
2022-12-11T03:41:22.671Z,2.95
2022-12-11T03:43:53.642Z,2.70
2022-12-11T03:46:29.031Z,2.17
2022-12-11T03:49:01.277Z,1.58
2022-12-11T03:51:31.911Z,1.83
2022-12-11T03:54:00.236Z,2.08
2022-12-11T03:56:30.016Z,2.17
2022-12-11T03:59:04.818Z,2.30
2022-12-11T04:01:32.519Z,1.73
2022-12-11T04:04:02.705Z,2.03
2022-12-11T04:06:30.320Z,1.58
2022-12-11T04:08:57.822Z,1.70
2022-12-11T04:11:37.266Z,2.10
2022-12-11T04:14:31.498Z,2.00
2022-12-11T04:17:00.325Z,1.92
2022-12-11T04:19:46.407Z,1.70
2022-12-11T04:22:35.955Z,2.00
2022-12-11T04:25:05.698Z,2.15
2022-12-11T04:27:51.503Z,1.70
2022-12-11T04:30:22.688Z,1.45
2022-12-11T04:32:52.191Z,1.63
2022-12-11T04:35:20.315Z,1.25
2022-12-11T04:37:47.917Z,1.80
2022-12-11T04:40:17.427Z,1.83
2022-12-11T04:42:44.670Z,1.60
2022-12-11T04:45:13.380Z,1.95
2022-12-11T04:47:41.686Z,2.00
2022-12-11T04:50:10.924Z,2.53
2022-12-11T04:52:39.528Z,1.60
2022-12-11T04:55:08.096Z,1.80
2022-12-11T04:57:40.282Z,2.15
2022-12-11T05:00:11.606Z,2.00
2022-12-11T05:02:41.501Z,2.55
2022-12-11T05:05:11.436Z,1.85
2022-12-11T05:07:41.113Z,2.08
2022-12-11T05:10:09.520Z,3.35
2022-12-11T05:12:37.364Z,3.00
2022-12-11T05:15:09.079Z,3.13
2022-12-11T05:17:36.586Z,2.47
2022-12-11T05:20:04.765Z,3.17
2022-12-11T05:22:32.511Z,3.22
2022-12-11T05:24:59.882Z,3.50
2022-12-11T05:27:27.603Z,3.63
2022-12-11T05:29:59.405Z,3.92
2022-12-11T05:32:27.785Z,5.00
2022-12-11T05:34:55.733Z,3.78
2022-12-11T05:37:23.573Z,7.07
2022-12-11T05:39:51.365Z,9.32
2022-12-11T05:42:21.751Z,4.82
2022-12-11T05:44:51.974Z,6.70
2022-12-11T05:47:20.592Z,4.07
2022-12-11T05:49:48.045Z,4.63
2022-12-11T05:52:17.146Z,5.05
2022-12-11T05:54:44.753Z,4.07
2022-12-11T05:57:15.668Z,4.60
2022-12-11T05:59:43.209Z,4.68
2022-12-11T06:02:10.735Z,3.53
2022-12-11T06:04:38.300Z,4.53
2022-12-11T06:07:07.063Z,4.72
2022-12-11T06:09:35.715Z,4.13
2022-12-11T06:12:03.085Z,3.95
2022-12-11T06:14:30.392Z,4.78
2022-12-11T06:16:57.836Z,4.97
2022-12-11T06:19:25.284Z,5.40
2022-12-11T06:21:53.106Z,5.35
2022-12-11T06:24:20.624Z,5.57
2022-12-11T06:26:47.988Z,4.03
2022-12-11T06:29:15.974Z,3.63
2022-12-11T06:31:46.780Z,3.65
2022-12-11T06:34:14.568Z,4.05
2022-12-11T06:36:42.168Z,3.28
2022-12-11T06:39:09.692Z,4.53
2022-12-11T06:41:37.147Z,4.88
2022-12-11T06:44:04.785Z,4.00
2022-12-11T06:46:32.491Z,4.05
2022-12-11T06:48:59.908Z,2.83
2022-12-11T06:51:27.527Z,3.67
2022-12-11T06:53:56.968Z,3.60
2022-12-11T06:56:25.947Z,4.25
2022-12-11T06:58:57.264Z,3.88
2022-12-11T07:01:35.765Z,4.60
2022-12-11T07:04:04.976Z,3.28
2022-12-11T07:06:34.591Z,3.72
2022-12-11T07:09:06.193Z,4.55
2022-12-11T07:11:35.807Z,4.07
2022-12-11T07:14:04.538Z,4.38
2022-12-11T07:16:33.308Z,3.67
2022-12-11T07:19:01.095Z,5.10
2022-12-11T07:21:28.497Z,3.80
2022-12-11T07:24:01.879Z,5.78
2022-12-11T07:26:36.074Z,3.88
2022-12-11T07:29:03.763Z,4.80
2022-12-11T07:31:35.504Z,4.50
2022-12-11T07:34:07.025Z,3.70
2022-12-11T07:36:35.347Z,5.13
2022-12-11T07:39:09.354Z,4.82
2022-12-11T07:41:37.706Z,4.15
2022-12-11T07:44:12.915Z,4.57
2022-12-11T07:47:00.364Z,4.55
2022-12-11T07:49:31.176Z,4.78
2022-12-11T07:52:10.358Z,3.85
2022-12-11T07:54:39.822Z,3.55
2022-12-11T07:57:14.327Z,4.15
2022-12-11T07:59:49.308Z,4.10
2022-12-11T08:02:39.803Z,4.45
2022-12-11T08:05:30.954Z,4.43
2022-12-11T08:07:58.947Z,4.13
2022-12-11T08:10:32.065Z,4.82
2022-12-11T08:12:59.551Z,4.82
2022-12-11T08:15:26.876Z,3.85
2022-12-11T08:17:56.305Z,4.38
2022-12-11T08:20:30.917Z,4.78
2022-12-11T08:23:00.948Z,3.78
2022-12-11T08:25:31.924Z,3.72
2022-12-11T08:28:01.881Z,5.07
2022-12-11T08:30:31.821Z,4.43
2022-12-11T08:33:02.367Z,4.80
2022-12-11T08:35:37.382Z,4.30
2022-12-11T08:38:09.807Z,4.45
2022-12-11T08:40:49.621Z,3.42
2022-12-11T08:43:19.855Z,5.32
2022-12-11T08:45:57.112Z,3.65
2022-12-11T08:48:36.556Z,3.40
2022-12-11T08:51:16.212Z,4.72
2022-12-11T08:53:45.043Z,3.90
2022-12-11T08:56:26.767Z,4.78
2022-12-11T08:59:17.003Z,4.40
2022-12-11T09:01:44.913Z,6.38
2022-12-11T09:07:37.397Z,4.10
2022-12-11T09:10:09.339Z,5.63
2022-12-11T09:13:16.440Z,36.80
2022-12-11T09:16:27.957Z,13.75
2022-12-11T09:19:01.972Z,4.97
2022-12-11T09:21:58.545Z,3.15
2022-12-11T09:24:27.902Z,5.07
2022-12-11T09:27:10.870Z,6.95
2022-12-11T09:29:50.916Z,10.57
2022-12-11T09:32:21.494Z,11.82
2022-12-11T09:38:05.827Z,3.80
2022-12-11T09:43:50.297Z,13.18
2022-12-11T09:46:45.674Z,5.43
2022-12-11T09:50:08.072Z,2.85
2022-12-11T09:52:45.861Z,3.95
2022-12-11T09:55:25.628Z,4.30
2022-12-11T09:58:12.887Z,3.60
2022-12-11T10:01:06.328Z,4.60
2022-12-11T10:04:16.058Z,5.60
2022-12-11T10:07:27.147Z,3.63
2022-12-11T10:10:11.345Z,2.10
2022-12-11T10:12:54.002Z,2.03
2022-12-11T10:19:40.174Z,8.32
2022-12-11T10:22:23.248Z,5.32
2022-12-11T10:28:16.766Z,2.05
2022-12-11T10:31:31.215Z,2.28
2022-12-11T10:34:17.885Z,3.80
2022-12-11T10:36:46.636Z,4.30
2022-12-11T10:39:20.158Z,2.03
2022-12-11T10:42:23.698Z,3.33
2022-12-11T10:45:56.318Z,5.13
2022-12-11T10:48:35.178Z,2.88
2022-12-11T10:51:25.034Z,4.40
2022-12-11T10:54:06.862Z,3.30
2022-12-11T10:56:37.852Z,6.18
2022-12-11T10:59:05.812Z,7.38
2022-12-11T11:01:34.034Z,4.60
2022-12-11T11:10:10.560Z,3.67
2022-12-11T11:12:54.713Z,5.05
2022-12-11T11:15:53.792Z,2.70
2022-12-11T11:18:27.323Z,4.45
2022-12-11T11:20:56.070Z,3.58
2022-12-11T11:23:29.780Z,5.80
2022-12-11T11:26:02.716Z,2.40
2022-12-11T11:28:35.917Z,5.35
2022-12-11T11:31:20.689Z,5.80
2022-12-11T11:33:51.982Z,3.45
2022-12-11T11:36:35.783Z,3.00
2022-12-11T11:39:35.263Z,3.53
2022-12-11T11:42:12.064Z,3.78
2022-12-11T11:44:58.933Z,4.45
2022-12-11T11:48:18.957Z,7.22
2022-12-11T11:51:47.055Z,12.43
2022-12-11T11:54:40.550Z,8.75
2022-12-11T11:57:37.821Z,6.68
2022-12-11T12:00:59.921Z,2.92
2022-12-11T12:03:35.953Z,2.60
2022-12-11T12:06:50.997Z,3.95
2022-12-11T12:10:09.755Z,2.70
2022-12-11T12:12:48.201Z,20.23
2022-12-11T12:15:45.984Z,3.85
2022-12-11T12:18:51.321Z,13.35
2022-12-11T12:21:23.543Z,10.05
2022-12-11T12:24:51.898Z,3.33
2022-12-11T12:31:09.152Z,3.83
2022-12-11T12:34:02.455Z,5.88
2022-12-11T12:37:10.681Z,2.85
2022-12-11T12:39:57.584Z,3.30
2022-12-11T12:42:34.798Z,2.78
2022-12-11T12:45:18.530Z,3.03
2022-12-11T12:47:53.521Z,3.42
2022-12-11T12:50:36.983Z,7.90
2022-12-11T12:53:06.847Z,4.68
2022-12-11T12:55:36.192Z,3.00
2022-12-11T12:58:26.012Z,4.07
2022-12-11T13:00:54.922Z,5.03
2022-12-11T13:03:32.953Z,3.60
2022-12-11T13:06:04.743Z,4.03
2022-12-11T13:08:44.166Z,4.77
2022-12-11T13:11:14.051Z,6.80
2022-12-11T13:13:54.856Z,4.15
2022-12-11T13:16:27.201Z,2.97
2022-12-11T13:18:54.762Z,5.18
2022-12-11T13:21:34.588Z,6.35
2022-12-11T13:24:21.961Z,5.90
2022-12-11T13:26:52.498Z,5.38
2022-12-11T13:29:31.707Z,9.70
2022-12-11T13:32:09.388Z,7.35
2022-12-11T13:34:40.549Z,8.55
2022-12-11T13:37:26.146Z,16.27
2022-12-11T13:39:53.449Z,25.63
2022-12-11T13:42:42.932Z,17.98
2022-12-11T13:45:31.113Z,10.75
2022-12-11T13:47:59.588Z,9.40
2022-12-11T13:50:36.105Z,9.10
2022-12-11T13:53:05.014Z,7.88
2022-12-11T13:55:36.598Z,4.35
2022-12-11T13:58:04.211Z,5.45
2022-12-11T14:00:33.135Z,5.78
2022-12-11T14:03:07.862Z,5.57
2022-12-11T14:05:36.001Z,5.93
2022-12-11T14:08:38.092Z,10.00
2022-12-11T14:11:06.498Z,6.40
2022-12-11T14:13:40.695Z,10.43
2022-12-11T14:16:09.300Z,15.07
2022-12-11T14:18:37.540Z,15.63
2022-12-11T14:21:06.388Z,12.77
2022-12-11T14:23:39.510Z,6.55
2022-12-11T14:26:22.504Z,9.48
2022-12-11T14:31:41.134Z,5.45
2022-12-11T14:34:19.728Z,6.47
2022-12-11T14:36:49.530Z,7.22
2022-12-11T14:39:29.461Z,7.32
2022-12-11T14:42:24.482Z,6.05
2022-12-11T14:45:07.543Z,5.28
2022-12-11T14:50:23.211Z,5.80
2022-12-11T14:53:07.164Z,8.13
2022-12-11T14:55:37.043Z,12.52
2022-12-11T14:58:28.235Z,22.15
2022-12-11T15:01:05.812Z,12.10
2022-12-11T15:03:42.106Z,9.25
2022-12-11T15:06:31.311Z,8.52
2022-12-11T15:09:25.500Z,10.15
2022-12-11T15:11:55.455Z,25.40
2022-12-11T15:14:24.086Z,13.10
2022-12-11T15:16:55.081Z,10.32
2022-12-11T15:19:30.641Z,10.05
2022-12-11T15:22:10.086Z,7.68
2022-12-11T15:24:43.352Z,11.07
2022-12-11T15:27:34.072Z,6.22
2022-12-11T15:30:02.872Z,9.05
2022-12-11T15:32:30.763Z,6.75
2022-12-11T15:35:00.551Z,7.57
2022-12-11T15:37:39.650Z,6.57
2022-12-11T15:40:07.979Z,10.00
2022-12-11T15:42:39.877Z,9.15
2022-12-11T15:45:12.893Z,10.73
2022-12-11T15:47:40.679Z,12.73
2022-12-11T15:50:21.986Z,7.40
2022-12-11T15:52:50.626Z,7.15
2022-12-11T15:55:18.922Z,8.15
2022-12-11T15:57:55.760Z,10.52
2022-12-11T16:00:24.209Z,8.55
2022-12-11T16:02:52.379Z,11.23
2022-12-11T16:05:20.122Z,8.48
2022-12-11T16:07:53.590Z,9.25
2022-12-11T16:10:22.252Z,10.45
2022-12-11T16:12:51.004Z,8.15
2022-12-11T16:15:23.617Z,9.75
2022-12-11T16:20:27.142Z,6.75
2022-12-11T16:22:54.889Z,8.20
2022-12-11T16:25:23.245Z,9.85
2022-12-11T16:27:50.951Z,7.07
2022-12-11T16:30:18.697Z,10.35
2022-12-11T16:32:49.332Z,9.30
2022-12-11T16:35:16.905Z,6.80
2022-12-11T16:37:45.174Z,6.15
2022-12-11T16:40:13.852Z,5.60
2022-12-11T16:42:43.659Z,5.85
2022-12-11T16:45:20.362Z,5.82
2022-12-11T16:47:48.268Z,6.20
2022-12-11T16:50:16.912Z,6.90
2022-12-11T16:52:45.850Z,6.78
2022-12-11T16:55:14.969Z,6.93
2022-12-11T16:57:45.416Z,12.02
2022-12-11T17:00:13.974Z,7.80
2022-12-11T17:02:41.919Z,6.57
2022-12-11T17:05:12.763Z,5.00
2022-12-11T17:07:40.971Z,7.05
2022-12-11T17:10:08.952Z,14.70
2022-12-11T17:12:36.853Z,6.32
2022-12-11T17:15:04.922Z,7.40
2022-12-11T17:17:33.930Z,8.90
2022-12-11T17:20:01.369Z,6.10
2022-12-11T17:22:32.102Z,5.60
2022-12-11T17:25:03.147Z,16.13
2022-12-11T17:27:33.956Z,12.25
2022-12-11T17:30:04.791Z,8.88
2022-12-11T17:32:32.762Z,9.20
2022-12-11T17:35:00.970Z,8.40
2022-12-11T17:37:29.185Z,11.77
2022-12-11T17:39:57.506Z,7.22
2022-12-11T17:42:25.627Z,7.10
2022-12-11T17:44:53.886Z,7.32
2022-12-11T17:47:21.812Z,7.82
2022-12-11T17:49:49.697Z,7.82
2022-12-11T17:52:17.744Z,9.43
2022-12-11T17:54:45.455Z,13.55
2022-12-11T17:57:13.449Z,6.10
2022-12-11T17:59:41.071Z,7.60
2022-12-11T18:02:10.840Z,9.15
2022-12-11T18:04:39.519Z,6.50
2022-12-11T18:07:07.459Z,7.28
2022-12-11T18:09:35.686Z,12.57
2022-12-11T18:12:03.733Z,9.23
2022-12-11T18:14:32.585Z,7.45
2022-12-11T18:17:00.675Z,7.82
2022-12-11T18:19:29.117Z,7.32
2022-12-11T18:21:57.814Z,7.03
2022-12-11T18:24:32.896Z,7.43
2022-12-11T18:27:01.020Z,6.93
2022-12-11T18:29:29.031Z,7.72
2022-12-11T18:31:57.039Z,12.77
2022-12-11T18:34:25.140Z,9.00
2022-12-11T18:36:53.224Z,13.95
2022-12-11T18:39:21.502Z,9.88
2022-12-11T18:42:03.556Z,10.07
2022-12-11T18:44:38.586Z,7.13
2022-12-11T18:47:07.598Z,7.05
2022-12-11T18:49:36.786Z,10.93
2022-12-11T18:52:05.640Z,8.63
2022-12-11T18:54:35.523Z,7.18
2022-12-11T18:57:03.999Z,7.40
2022-12-11T18:59:34.624Z,9.75
2022-12-11T19:02:05.562Z,8.38
2022-12-11T19:04:40.904Z,8.65
2022-12-11T19:07:09.626Z,7.25
2022-12-11T19:09:42.418Z,10.20
2022-12-11T19:12:14.773Z,8.23
2022-12-11T19:14:44.848Z,10.10
2022-12-11T19:17:13.368Z,8.48
2022-12-11T19:19:41.604Z,10.23
2022-12-11T19:22:09.740Z,10.07
2022-12-11T19:24:39.557Z,9.02
2022-12-11T19:27:13.196Z,7.88
2022-12-11T19:29:42.014Z,8.38
2022-12-11T19:32:11.019Z,5.20
2022-12-11T19:34:38.939Z,9.98
2022-12-11T19:37:07.157Z,6.55
2022-12-11T19:39:39.673Z,6.40
2022-12-11T19:42:13.235Z,6.72
2022-12-11T19:44:42.598Z,6.10
2022-12-11T19:47:10.937Z,6.00
2022-12-11T19:49:39.458Z,6.93
2022-12-11T19:52:09.434Z,6.47
2022-12-11T19:54:37.958Z,8.40
2022-12-11T19:57:06.085Z,8.27
2022-12-11T19:59:34.496Z,7.45
2022-12-11T20:02:02.953Z,7.00
2022-12-11T20:04:33.805Z,7.68
2022-12-11T20:07:02.279Z,8.98
2022-12-11T20:09:30.696Z,10.75
2022-12-11T20:11:59.817Z,11.13
2022-12-11T20:14:28.483Z,11.98
2022-12-11T20:17:15.190Z,11.00
2022-12-11T20:19:44.907Z,7.60
2022-12-11T20:22:17.446Z,8.63
2022-12-11T20:24:47.186Z,9.38
2022-12-11T20:27:15.859Z,8.55
2022-12-11T20:29:44.280Z,8.55
2022-12-11T20:32:12.542Z,7.65
2022-12-11T20:34:41.989Z,8.25
2022-12-11T20:37:11.456Z,9.65
2022-12-11T20:39:39.875Z,9.13
2022-12-11T20:42:11.070Z,9.38
2022-12-11T20:44:42.815Z,12.23
2022-12-11T20:47:18.766Z,11.63
2022-12-11T20:49:55.208Z,12.35
2022-12-11T20:52:25.999Z,11.93
2022-12-11T20:54:56.998Z,15.38
2022-12-11T20:57:25.918Z,11.25
2022-12-11T20:59:54.448Z,12.35
2022-12-11T21:02:23.135Z,14.45
2022-12-11T21:04:51.136Z,11.13
2022-12-11T21:07:20.064Z,12.77
2022-12-11T21:09:49.991Z,11.45
2022-12-11T21:12:18.165Z,10.13
2022-12-11T21:14:47.219Z,12.00
2022-12-11T21:17:15.145Z,10.55
2022-12-11T21:19:42.814Z,13.05
2022-12-11T21:22:11.132Z,10.18
2022-12-11T21:24:39.469Z,15.18
2022-12-11T21:27:06.667Z,13.43
2022-12-11T21:29:40.384Z,11.70
2022-12-11T21:32:08.164Z,11.10
2022-12-11T21:34:38.792Z,9.75
2022-12-11T21:37:09.116Z,11.35
2022-12-11T21:39:39.344Z,10.95
2022-12-11T21:42:07.339Z,11.45
2022-12-11T21:47:27.996Z,11.93
2022-12-11T21:49:55.539Z,11.95
2022-12-11T21:52:23.001Z,12.48
2022-12-11T21:54:50.348Z,11.60
2022-12-11T21:57:26.136Z,11.20
2022-12-11T21:59:54.098Z,11.88
2022-12-11T22:02:21.757Z,11.45
2022-12-11T22:04:49.229Z,13.65
2022-12-11T22:07:16.509Z,11.65
2022-12-11T22:09:44.040Z,10.82
2022-12-11T22:12:26.261Z,10.65
2022-12-11T22:14:53.615Z,13.90
2022-12-11T22:17:21.017Z,14.32
2022-12-11T22:19:48.596Z,13.73
2022-12-11T22:22:15.766Z,10.10
2022-12-11T22:24:43.220Z,12.07
2022-12-11T22:27:10.770Z,11.88
2022-12-11T22:29:39.269Z,13.82
2022-12-11T22:32:06.999Z,11.15
2022-12-11T22:34:36.551Z,11.38
2022-12-11T22:37:03.790Z,14.90
2022-12-11T22:39:31.067Z,13.27
2022-12-11T22:41:59.753Z,11.52
2022-12-11T22:44:27.366Z,12.35
2022-12-11T22:46:54.916Z,9.52
2022-12-11T22:49:22.322Z,11.82
2022-12-11T22:51:49.796Z,13.20
2022-12-11T22:54:17.314Z,12.75
2022-12-11T22:56:47.133Z,12.45
2022-12-11T22:59:15.009Z,11.50
2022-12-11T23:01:42.696Z,11.27
2022-12-11T23:04:10.075Z,11.10
2022-12-11T23:06:37.430Z,10.38
2022-12-11T23:09:05.424Z,12.30
2022-12-11T23:11:36.486Z,11.35
2022-12-11T23:14:05.947Z,11.23
2022-12-11T23:16:33.975Z,12.30
2022-12-11T23:19:01.610Z,13.07
2022-12-11T23:21:32.306Z,11.57
2022-12-11T23:24:02.817Z,12.68
2022-12-11T23:26:30.578Z,12.35
2022-12-11T23:28:58.984Z,12.48
2022-12-11T23:31:27.082Z,10.98
2022-12-11T23:33:54.680Z,10.80
2022-12-11T23:36:22.284Z,10.10
2022-12-11T23:38:54.281Z,11.27
2022-12-11T23:41:22.523Z,7.38
2022-12-11T23:43:49.870Z,10.90
2022-12-11T23:46:19.531Z,10.25
2022-12-11T23:48:46.917Z,9.63
2022-12-11T23:51:17.040Z,10.45
2022-12-11T23:53:45.005Z,9.35
2022-12-11T23:56:15.935Z,8.68
2022-12-11T23:58:43.436Z,7.60
